Time;durP1;ratioP1;P1;durP2;ratioP2;P2;SDS_P1;SDS_P2;PMS_P1;PMS_P2;Temp;Humidity;BMP_temperature;BMP_pressure;BME280_temperature;BME280_humidity;BME280_pressure;Samples;Min_cycle;Max_cycle;Signal;HPM_P1;HPM_P2
2024/02/05 00:01:52;;;;;;;;;;;;;;;16.38;42.85;100771.84;5024931;28;1083;-45
2024/02/05 00:04:17;;;;;;;;;;;;;;;18.22;39.15;100770.91;5027196;28;1083;-50
2024/02/05 00:06:43;;;;;;;;;;;;;;;17.06;41.47;100768.00;5027653;28;1227;-46
2024/02/05 00:09:09;;;;;;;;;;;;;;;16.83;42.07;100772.13;5018983;28;1040;-47
2024/02/05 00:11:35;;;;;;;;;;;;;;;18.51;38.58;100767.41;5026667;28;1113;-46
2024/02/05 00:14:01;;;;;;;;;;;;;;;17.17;41.21;100762.53;5018347;28;1000;-47
2024/02/05 00:16:26;;;;;;;;;;;;;;;16.71;42.63;100758.66;5034776;28;1207;-47
2024/02/05 00:18:52;;;;;;;;;;;;;;;16.52;42.66;100761.16;5033700;28;1914;-46
2024/02/05 00:21:17;;;;;;;;;;;;;;;18.11;39.47;100765.47;5025415;28;1000;-47
2024/02/05 00:23:43;;;;;;;;;;;;;;;17.24;41.32;100766.59;5034325;28;1117;-49
2024/02/05 00:26:08;;;;;;;;;;;;;;;16.77;42.20;100754.84;5016722;28;1139;-46
2024/02/05 00:28:34;;;;;;;;;;;;;;;18.01;39.82;100770.22;5022833;28;1008;-46
2024/02/05 00:31:00;;;;;;;;;;;;;;;17.14;41.24;100765.78;5028915;28;2731;-46
2024/02/05 00:33:25;;;;;;;;;;;;;;;16.75;42.18;100765.25;5023011;28;1091;-44
2024/02/05 00:35:51;;;;;;;;;;;;;;;16.55;42.55;100757.00;5028351;28;1094;-45
2024/02/05 00:38:17;;;;;;;;;;;;;;;16.40;42.42;100757.84;5016569;28;1080;-45
2024/02/05 00:40:44;;;;;;;;;;;;;;;18.02;39.83;100747.09;5016357;28;1906;-47
2024/02/05 00:43:10;;;;;;;;;;;;;;;16.87;42.27;100747.69;5015740;28;1028;-45
2024/02/05 00:45:36;;;;;;;;;;;;;;;17.77;40.42;100748.84;5016449;28;1095;-46
2024/02/05 00:48:01;;;;;;;;;;;;;;;17.86;39.78;100735.31;5030606;28;1222;-48
2024/02/05 00:50:27;;;;;;;;;;;;;;;16.98;41.63;100732.84;5027283;28;1064;-44
2024/02/05 00:52:52;;;;;;;;;;;;;;;16.65;42.24;100732.31;5021686;28;1191;-46
2024/02/05 00:55:18;;;;;;;;;;;;;;;16.95;42.02;100714.19;5016116;28;1402;-44
2024/02/05 00:57:43;;;;;;;;;;;;;;;17.53;40.61;100699.16;5030920;28;1151;-46
2024/02/05 01:00:09;;;;;;;;;;;;;;;16.67;42.29;100705.41;5027324;28;2590;-44
2024/02/05 01:02:36;;;;;;;;;;;;;;;18.23;39.40;100707.31;5030165;28;1036;-47
2024/02/05 01:05:03;;;;;;;;;;;;;;;17.38;40.87;100708.31;5034112;28;897;-45
2024/02/05 01:07:29;;;;;;;;;;;;;;;16.79;42.05;100699.66;5035128;28;1088;-45
2024/02/05 01:09:54;;;;;;;;;;;;;;;16.59;42.45;100701.31;5026559;28;1181;-45
2024/02/05 01:12:20;;;;;;;;;;;;;;;17.78;40.33;100700.97;5019625;28;1067;-44
2024/02/05 01:14:45;;;;;;;;;;;;;;;17.13;41.63;100704.53;5039552;28;1035;-45
2024/02/05 01:17:11;;;;;;;;;;;;;;;16.62;42.76;100710.06;5033419;28;1186;-48
2024/02/05 01:19:37;;;;;;;;;;;;;;;18.12;39.44;100695.56;5039033;28;1910;-46
2024/02/05 01:22:04;;;;;;;;;;;;;;;16.97;41.96;100698.28;5025714;28;1055;-46
2024/02/05 01:24:30;;;;;;;;;;;;;;;16.60;42.49;100685.66;5031719;28;1244;-44
2024/02/05 01:26:55;;;;;;;;;;;;;;;17.34;41.09;100677.81;5032485;28;1012;-45
2024/02/05 01:29:21;;;;;;;;;;;;;;;16.70;42.45;100676.59;5027739;28;2389;-47
2024/02/05 01:31:47;;;;;;;;;;;;;;;17.56;40.85;100665.63;5019406;28;1056;-44
2024/02/05 01:34:12;;;;;;;;;;;;;;;17.31;41.01;100656.38;5027933;28;1105;-46
2024/02/05 01:36:38;;;;;;;;;;;;;;;17.21;41.55;100648.19;5024367;28;1038;-47
2024/02/05 01:39:04;;;;;;;;;;;;;;;18.61;38.34;100638.72;5027525;28;1984;-45
2024/02/05 01:41:30;;;;;;;;;;;;;;;17.23;41.32;100627.56;5028023;28;1015;-46
2024/02/05 01:43:56;;;;;;;;;;;;;;;16.73;42.15;100627.44;5026949;28;1047;-44
2024/02/05 01:46:21;;;;;;;;;;;;;;;16.60;42.50;100617.84;5038988;28;1012;-46
2024/02/05 01:48:48;;;;;;;;;;;;;;;17.89;39.74;100611.81;5030880;28;1234;-44
2024/02/05 01:51:14;;;;;;;;;;;;;;;16.90;41.91;100615.31;5018996;28;1006;-44
2024/02/05 01:53:40;;;;;;;;;;;;;;;16.52;42.70;100599.22;5021982;28;838;-44
2024/02/05 01:56:06;;;;;;;;;;;;;;;16.96;42.16;100597.72;5017276;28;1021;-48
2024/02/05 01:58:31;;;;;;;;;;;;;;;18.06;39.56;100591.31;5018825;28;1052;-48
2024/02/05 02:00:57;;;;;;;;;;;;;;;16.87;42.14;100596.63;5031363;28;2487;-45
2024/02/05 02:03:22;;;;;;;;;;;;;;;16.50;42.84;100589.59;5027402;28;1048;-45
2024/02/05 02:05:48;;;;;;;;;;;;;;;16.40;42.56;100584.94;5027073;28;1114;-45
2024/02/05 02:08:14;;;;;;;;;;;;;;;17.50;40.82;100576.88;5018697;28;1122;-43
2024/02/05 02:10:40;;;;;;;;;;;;;;;17.37;41.08;100574.75;5021334;28;1068;-47
2024/02/05 02:13:05;;;;;;;;;;;;;;;16.70;42.30;100578.56;5037420;28;1198;-44
2024/02/05 02:15:30;;;;;;;;;;;;;;;17.26;41.35;100571.22;5022882;28;1119;-47
2024/02/05 02:17:56;;;;;;;;;;;;;;;17.65;40.39;100562.19;5029883;28;889;-48
2024/02/05 02:20:22;;;;;;;;;;;;;;;16.85;41.85;100560.41;5037210;28;1910;-45
2024/02/05 02:22:56;;;;;;;;;;;;;;;17.00;41.79;100551.28;5037170;28;1144;-48
2024/02/05 02:25:21;;;;;;;;;;;;;;;17.38;40.70;100546.97;5020893;28;1099;-47
2024/02/05 02:27:47;;;;;;;;;;;;;;;16.72;42.29;100543.41;5028199;28;1079;-49
2024/02/05 02:30:13;;;;;;;;;;;;;;;16.44;42.64;100547.63;5029684;28;2425;-48
2024/02/05 02:32:48;;;;;;;;;;;;;;;17.50;40.71;100540.28;5028275;28;1103;-45
2024/02/05 02:35:15;;;;;;;;;;;;;;;17.68;40.16;100544.28;5024117;28;1126;-46
2024/02/05 02:37:43;;;;;;;;;;;;;;;16.77;42.13;100545.31;5025036;28;1025;-46
2024/02/05 02:40:13;;;;;;;;;;;;;;;18.42;38.82;100561.53;5035522;28;1975;-47
2024/02/05 02:42:40;;;;;;;;;;;;;;;17.24;41.00;100551.47;5025468;28;905;-49
2024/02/05 02:45:06;;;;;;;;;;;;;;;16.67;42.31;100554.41;5024308;28;1008;-45
2024/02/05 02:47:32;;;;;;;;;;;;;;;16.49;42.42;100558.56;5023590;28;1018;-48
2024/02/05 02:49:57;;;;;;;;;;;;;;;17.48;40.79;100548.00;5037416;28;1308;-45
2024/02/05 02:52:23;;;;;;;;;;;;;;;17.69;40.10;100538.50;5037227;28;1114;-45
2024/02/05 02:54:48;;;;;;;;;;;;;;;16.82;42.29;100531.56;5028954;28;1127;-47
2024/02/05 02:57:15;;;;;;;;;;;;;;;16.58;42.50;100521.22;5019745;28;1128;-44
2024/02/05 02:59:40;;;;;;;;;;;;;;;17.88;40.15;100515.78;5031321;28;2488;-44
2024/02/05 03:02:06;;;;;;;;;;;;;;;17.36;40.92;100502.47;5018197;28;1122;-45
2024/02/05 03:04:31;;;;;;;;;;;;;;;16.73;42.44;100506.63;5031424;28;1211;-50
2024/02/05 03:06:57;;;;;;;;;;;;;;;16.48;42.83;100501.22;5024238;28;949;-45
2024/02/05 03:09:23;;;;;;;;;;;;;;;17.17;41.35;100507.81;5017551;28;1084;-46
2024/02/05 03:11:49;;;;;;;;;;;;;;;17.92;39.73;100519.63;5018508;28;1044;-48
2024/02/05 03:14:14;;;;;;;;;;;;;;;16.92;41.98;100525.25;5030668;28;1095;-49
2024/02/05 03:16:40;;;;;;;;;;;;;;;16.45;42.71;100512.75;5028697;28;1108;-48
2024/02/05 03:19:05;;;;;;;;;;;;;;;17.32;41.47;100509.63;5023991;28;1965;-45
2024/02/05 03:21:31;;;;;;;;;;;;;;;18.06;39.24;100506.88;5025534;28;1070;-50
2024/02/05 03:23:56;;;;;;;;;;;;;;;16.93;41.90;100500.25;5035343;28;1052;-46
2024/02/05 03:26:23;;;;;;;;;;;;;;;16.58;42.58;100492.97;5037230;28;1110;-50
2024/02/05 03:28:48;;;;;;;;;;;;;;;18.12;39.45;100480.94;5032176;28;1070;-47
2024/02/05 03:31:14;;;;;;;;;;;;;;;16.91;42.05;100472.25;5018393;28;2075;-53
2024/02/05 03:33:39;;;;;;;;;;;;;;;16.91;41.94;100463.16;5030384;28;1191;-49
2024/02/05 03:36:05;;;;;;;;;;;;;;;17.97;39.46;100461.03;5016272;28;1036;-48
2024/02/05 03:38:30;;;;;;;;;;;;;;;16.95;41.73;100457.94;5035313;28;1041;-47
2024/02/05 03:40:56;;;;;;;;;;;;;;;16.62;42.23;100460.25;5036968;28;1982;-46
2024/02/05 03:43:22;;;;;;;;;;;;;;;16.46;42.50;100456.78;5023306;28;888;-51
2024/02/05 03:45:48;;;;;;;;;;;;;;;17.92;39.84;100470.97;5036234;28;1004;-47
2024/02/05 03:48:13;;;;;;;;;;;;;;;17.38;41.06;100461.75;5023160;28;1094;-50
2024/02/05 03:50:39;;;;;;;;;;;;;;;16.71;42.30;100464.06;5036140;28;1233;-45
2024/02/05 03:53:05;;;;;;;;;;;;;;;17.68;40.49;100459.84;5018577;28;1232;-45
2024/02/05 03:55:30;;;;;;;;;;;;;;;17.29;40.96;100463.47;5024270;28;917;-49
2024/02/05 03:57:57;;;;;;;;;;;;;;;16.73;42.33;100454.47;5021181;28;1004;-48
2024/02/05 04:00:22;;;;;;;;;;;;;;;17.95;39.90;100447.56;5025977;28;2612;-48
2024/02/05 04:02:48;;;;;;;;;;;;;;;17.34;40.89;100449.69;5030094;28;1148;-49
2024/02/05 04:05:13;;;;;;;;;;;;;;;16.78;42.03;100442.63;5017197;28;1028;-49
2024/02/05 04:07:39;;;;;;;;;;;;;;;17.74;40.20;100433.97;5031251;28;1016;-47
2024/02/05 04:10:04;;;;;;;;;;;;;;;17.53;40.36;100444.34;5026538;28;1118;-46
2024/02/05 04:12:30;;;;;;;;;;;;;;;16.90;41.79;100448.63;5023259;28;1139;-47
2024/02/05 04:14:55;;;;;;;;;;;;;;;17.78;40.17;100436.94;5026040;28;1162;-48
2024/02/05 04:17:22;;;;;;;;;;;;;;;17.27;40.90;100432.72;5019683;28;1179;-45
2024/02/05 04:19:47;;;;;;;;;;;;;;;16.82;41.90;100440.94;5025940;28;1906;-47
2024/02/05 04:22:13;;;;;;;;;;;;;;;17.60;40.54;100441.25;5032613;28;1039;-51
2024/02/05 04:24:38;;;;;;;;;;;;;;;18.22;38.93;100452.47;5016552;28;1225;-46
2024/02/05 04:27:05;;;;;;;;;;;;;;;17.16;41.30;100445.69;5019259;28;1079;-46
2024/02/05 04:29:30;;;;;;;;;;;;;;;16.80;42.07;100429.41;5033165;28;2647;-47
2024/02/05 04:31:56;;;;;;;;;;;;;;;17.67;40.43;100436.25;5029042;28;965;-44
2024/02/05 04:34:22;;;;;;;;;;;;;;;17.68;40.22;100432.34;5036454;28;1058;-46
2024/02/05 04:36:52;;;;;;;;;;;;;;;16.90;42.09;100434.06;5033152;28;914;-48
2024/02/05 04:39:18;;;;;;;;;;;;;;;16.57;42.30;100437.22;5026485;28;1967;-45
2024/02/05 04:41:44;;;;;;;;;;;;;;;18.27;39.10;100454.34;5031724;28;1007;-47
2024/02/05 04:44:09;;;;;;;;;;;;;;;17.14;41.24;100460.81;5026322;28;996;-46
2024/02/05 04:46:35;;;;;;;;;;;;;;;16.65;42.42;100468.78;5033856;28;1023;-50
2024/02/05 04:49:01;;;;;;;;;;;;;;;16.41;42.51;100457.59;5029991;28;1175;-54
2024/02/05 04:51:26;;;;;;;;;;;;;;;16.98;42.13;100466.41;5023894;28;1012;-49
2024/02/05 04:53:51;;;;;;;;;;;;;;;18.53;38.60;100470.56;5021745;28;1182;-45
2024/02/05 04:56:17;;;;;;;;;;;;;;;17.24;41.50;100469.03;5036709;28;1153;-49
2024/02/05 04:58:43;;;;;;;;;;;;;;;16.78;42.21;100478.31;5029694;28;984;-48
2024/02/05 05:01:08;;;;;;;;;;;;;;;18.00;39.61;100483.25;5022993;28;2633;-48
2024/02/05 05:03:34;;;;;;;;;;;;;;;17.10;41.49;100480.63;5029640;28;1154;-47
2024/02/05 05:06:00;;;;;;;;;;;;;;;16.60;42.68;100488.00;5037804;28;1078;-50
2024/02/05 05:08:25;;;;;;;;;;;;;;;16.47;42.41;100474.91;5027517;28;1067;-47
2024/02/05 05:10:51;;;;;;;;;;;;;;;17.58;40.94;100492.94;5020249;28;1066;-50
2024/02/05 05:13:16;;;;;;;;;;;;;;;16.72;42.44;100480.25;5019321;28;1151;-48
2024/02/05 05:15:42;;;;;;;;;;;;;;;16.37;42.85;100476.56;5027976;28;1107;-47
2024/02/05 05:18:07;;;;;;;;;;;;;;;17.35;40.97;100473.34;5037794;28;1016;-48
2024/02/05 05:20:33;;;;;;;;;;;;;;;16.90;42.04;100472.50;5027762;28;1977;-47
2024/02/05 05:22:59;;;;;;;;;;;;;;;16.50;42.69;100460.59;5038379;28;1016;-46
2024/02/05 05:25:24;;;;;;;;;;;;;;;16.36;42.89;100474.91;5039662;28;999;-50
2024/02/05 05:27:50;;;;;;;;;;;;;;;16.14;43.33;100466.19;5025718;28;1174;-48
2024/02/05 05:30:15;;;;;;;;;;;;;;;15.96;43.79;100465.66;5032546;28;2851;-47
2024/02/05 05:32:41;;;;;;;;;;;;;;;15.76;44.42;100460.22;5037757;28;1108;-47
2024/02/05 05:35:06;;;;;;;;;;;;;;;15.65;44.70;100467.59;5025660;28;1095;-48
2024/02/05 05:37:32;;;;;;;;;;;;;;;15.55;44.93;100461.03;5038714;28;1063;-49
2024/02/05 05:39:58;;;;;;;;;;;;;;;15.39;44.98;100462.13;5019846;28;1918;-49
2024/02/05 05:42:23;;;;;;;;;;;;;;;15.38;44.93;100461.28;5029139;28;1095;-47
2024/02/05 05:44:49;;;;;;;;;;;;;;;17.00;41.50;100464.22;5032193;28;1084;-47
2024/02/05 05:47:15;;;;;;;;;;;;;;;17.00;41.16;100455.97;5019757;28;1012;-52
2024/02/05 05:49:40;;;;;;;;;;;;;;;16.22;42.94;100458.22;5038694;28;1124;-49
2024/02/05 05:52:06;;;;;;;;;;;;;;;15.95;43.56;100463.22;5038992;28;1031;-48
2024/02/05 05:54:31;;;;;;;;;;;;;;;15.68;44.20;100465.16;5018432;28;1233;-45
2024/02/05 05:56:57;;;;;;;;;;;;;;;15.52;44.74;100468.97;5019496;28;1040;-49
2024/02/05 05:59:23;;;;;;;;;;;;;;;16.39;42.69;100468.84;5017908;28;1940;-46
2024/02/05 06:01:49;;;;;;;;;;;;;;;17.54;40.24;100459.69;5027465;28;1179;-50
2024/02/05 06:04:14;;;;;;;;;;;;;;;16.49;42.51;100461.69;5038113;28;1007;-51
2024/02/05 06:06:40;;;;;;;;;;;;;;;16.03;43.54;100468.97;5034511;28;1137;-45
2024/02/05 06:09:05;;;;;;;;;;;;;;;15.80;43.92;100467.63;5033326;28;1186;-48
2024/02/05 06:11:34;;;;;;;;;;;;;;;15.60;44.35;100462.97;5038155;28;1095;-49
2024/02/05 06:13:59;;;;;;;;;;;;;;;15.73;44.30;100472.53;5024590;28;1245;-49
2024/02/05 06:16:25;;;;;;;;;;;;;;;17.29;40.80;100463.47;5038311;28;1134;-47
2024/02/05 06:18:50;;;;;;;;;;;;;;;16.76;41.50;100461.31;5033862;28;1032;-49
2024/02/05 06:21:16;;;;;;;;;;;;;;;16.11;43.14;100480.47;5026373;28;1909;-47
2024/02/05 06:23:41;;;;;;;;;;;;;;;15.80;44.11;100480.53;5037187;28;1027;-48
2024/02/05 06:26:09;;;;;;;;;;;;;;;15.57;44.43;100479.94;5038538;28;1035;-47
2024/02/05 06:28:34;;;;;;;;;;;;;;;15.39;44.97;100484.88;5037215;28;1137;-49
2024/02/05 06:31:00;;;;;;;;;;;;;;;16.98;41.38;100473.84;5027740;28;2761;-47
2024/02/05 06:33:25;;;;;;;;;;;;;;;17.18;40.63;100473.72;5023793;28;1055;-44
2024/02/05 06:35:51;;;;;;;;;;;;;;;16.29;42.66;100468.09;5018742;28;1108;-45
2024/02/05 06:38:17;;;;;;;;;;;;;;;15.93;43.75;100479.94;5031602;28;1036;-46
2024/02/05 06:40:42;;;;;;;;;;;;;;;15.68;44.11;100486.25;5025611;28;1902;-46
2024/02/05 06:43:08;;;;;;;;;;;;;;;15.46;44.78;100470.91;5028618;28;1119;-47
2024/02/05 06:45:37;;;;;;;;;;;;;;;16.83;41.64;100459.06;5037409;28;1123;-47
2024/02/05 06:48:03;;;;;;;;;;;;;;;17.43;40.23;100453.47;5023591;28;1102;-48
2024/02/05 06:50:28;;;;;;;;;;;;;;;16.31;42.55;100449.41;5024822;28;1104;-52
2024/02/05 06:52:54;;;;;;;;;;;;;;;15.87;43.57;100445.41;5024379;28;1100;-49
2024/02/05 06:55:19;;;;;;;;;;;;;;;15.73;44.05;100448.69;5036385;28;1175;-50
2024/02/05 06:57:45;;;;;;;;;;;;;;;15.49;44.76;100448.44;5024006;28;1111;-46
2024/02/05 07:00:12;;;;;;;;;;;;;;;15.45;45.00;100460.22;5029282;28;2505;-47
2024/02/05 07:02:38;;;;;;;;;;;;;;;17.08;41.32;100449.88;5017854;28;1092;-48
2024/02/05 07:05:03;;;;;;;;;;;;;;;17.06;40.87;100452.09;5017552;28;1379;-48
2024/02/05 07:07:29;;;;;;;;;;;;;;;16.21;43.07;100436.53;5023897;28;1166;-49
2024/02/05 07:09:55;;;;;;;;;;;;;;;15.86;43.88;100441.84;5037316;28;1129;-48
2024/02/05 07:12:20;;;;;;;;;;;;;;;15.65;44.24;100434.72;5034991;28;1047;-47
2024/02/05 07:14:46;;;;;;;;;;;;;;;15.55;44.43;100444.56;5017779;28;1055;-48
2024/02/05 07:17:14;;;;;;;;;;;;;;;15.94;43.59;100434.97;5030581;28;1009;-46
2024/02/05 07:19:40;;;;;;;;;;;;;;;17.36;40.46;100435.66;5024097;28;1961;-44
2024/02/05 07:22:07;;;;;;;;;;;;;;;16.74;41.64;100420.38;5036907;28;1035;-46
2024/02/05 07:24:32;;;;;;;;;;;;;;;16.05;43.23;100413.84;5028318;28;1019;-45
2024/02/05 07:26:59;;;;;;;;;;;;;;;15.85;43.99;100398.25;5033103;28;1078;-45
2024/02/05 07:29:25;;;;;;;;;;;;;;;15.57;44.45;100415.00;5035017;28;2612;-47
2024/02/05 07:31:50;;;;;;;;;;;;;;;15.44;44.88;100409.25;5022659;28;1012;-49
2024/02/05 07:34:16;;;;;;;;;;;;;;;16.79;41.83;100394.00;5026368;28;1078;-46
2024/02/05 07:36:41;;;;;;;;;;;;;;;17.30;40.78;100406.59;5021392;28;1007;-46
2024/02/05 07:39:08;;;;;;;;;;;;;;;16.33;42.59;100398.66;5017249;28;1913;-46
2024/02/05 07:41:33;;;;;;;;;;;;;;;15.92;43.59;100398.78;5032579;28;1055;-45
2024/02/05 07:43:59;;;;;;;;;;;;;;;15.64;44.46;100397.44;5028143;28;1047;-47
2024/02/05 07:46:24;;;;;;;;;;;;;;;15.51;44.50;100399.63;5030162;28;1135;-47
2024/02/05 07:48:50;;;;;;;;;;;;;;;15.92;43.74;100398.78;5017166;28;1131;-49
2024/02/05 07:51:16;;;;;;;;;;;;;;;17.30;40.71;100379.94;5031758;28;1232;-47
2024/02/05 07:53:42;;;;;;;;;;;;;;;16.75;41.84;100394.56;5036299;28;1031;-46
2024/02/05 07:56:10;;;;;;;;;;;;;;;16.11;43.28;100390.78;5027075;28;1043;-48
2024/02/05 07:58:38;;;;;;;;;;;;;;;15.77;44.18;100396.03;5024918;28;1098;-48
2024/02/05 08:01:04;;;;;;;;;;;;;;;15.64;44.25;100420.19;5033783;28;2488;-48
2024/02/05 08:03:30;;;;;;;;;;;;;;;15.93;43.77;100419.63;5017195;28;1044;-47
2024/02/05 08:05:56;;;;;;;;;;;;;;;17.32;40.85;100429.94;5031712;28;1067;-49
2024/02/05 08:08:21;;;;;;;;;;;;;;;16.64;41.86;100425.94;5035123;28;905;-47
2024/02/05 08:10:47;;;;;;;;;;;;;;;16.06;43.30;100427.28;5033630;28;1121;-48
2024/02/05 08:13:13;;;;;;;;;;;;;;;15.74;44.27;100420.19;5016872;28;1047;-51
2024/02/05 08:15:38;;;;;;;;;;;;;;;15.60;44.59;100424.59;5018938;28;1063;-50
2024/02/05 08:18:04;;;;;;;;;;;;;;;15.52;44.68;100420.47;5036328;28;1060;-46
2024/02/05 08:20:29;;;;;;;;;;;;;;;17.02;41.29;100428.22;5030495;28;1914;-48
2024/02/05 08:22:55;;;;;;;;;;;;;;;17.47;40.34;100428.97;5035795;28;1046;-46
2024/02/05 08:25:21;;;;;;;;;;;;;;;16.41;42.39;100436.47;5023112;28;1124;-46
2024/02/05 08:27:46;;;;;;;;;;;;;;;15.98;43.42;100435.25;5035582;28;1177;-48
2024/02/05 08:30:12;;;;;;;;;;;;;;;15.71;44.35;100437.19;5027227;28;2515;-48
2024/02/05 08:32:38;;;;;;;;;;;;;;;15.55;44.64;100432.81;5018366;28;857;-45
2024/02/05 08:35:03;;;;;;;;;;;;;;;16.22;43.27;100436.25;5017905;28;1006;-48
2024/02/05 08:37:29;;;;;;;;;;;;;;;17.44;40.58;100437.81;5028022;28;1074;-46
2024/02/05 08:39:54;;;;;;;;;;;;;;;16.41;42.58;100438.38;5021048;28;1906;-46
2024/02/05 08:42:20;;;;;;;;;;;;;;;15.90;43.63;100439.38;5036348;28;1043;-44
2024/02/05 08:44:45;;;;;;;;;;;;;;;15.66;44.14;100426.22;5030987;28;1484;-46
2024/02/05 08:47:13;;;;;;;;;;;;;;;15.53;44.47;100430.34;5024165;28;1140;-45
2024/02/05 08:49:39;;;;;;;;;;;;;;;16.08;43.70;100437.97;5034736;28;1076;-48
2024/02/05 08:52:05;;;;;;;;;;;;;;;17.42;40.60;100429.03;5035821;28;1138;-48
2024/02/05 08:54:35;;;;;;;;;;;;;;;16.70;41.96;100424.81;5035807;28;1126;-47
2024/02/05 08:57:04;;;;;;;;;;;;;;;16.13;43.12;100426.16;5032648;28;884;-44
2024/02/05 08:59:32;;;;;;;;;;;;;;;15.78;44.08;100420.47;5032441;28;2586;-46
2024/02/05 09:01:57;;;;;;;;;;;;;;;15.58;44.43;100421.28;5016151;28;1084;-50
2024/02/05 09:04:23;;;;;;;;;;;;;;;15.47;44.90;100408.69;5032379;28;1217;-47
2024/02/05 09:06:49;;;;;;;;;;;;;;;16.54;42.67;100412.28;5026179;28;1075;-46
2024/02/05 09:09:14;;;;;;;;;;;;;;;17.51;40.29;100410.00;5022168;28;1112;-47
2024/02/05 09:11:40;;;;;;;;;;;;;;;16.37;42.50;100402.47;5035767;28;1114;-47
2024/02/05 09:14:05;;;;;;;;;;;;;;;16.00;43.64;100394.66;5032765;28;1406;-48
2024/02/05 09:16:31;;;;;;;;;;;;;;;15.72;44.12;100394.97;5016170;28;1218;-46
2024/02/05 09:18:56;;;;;;;;;;;;;;;15.56;44.57;100382.38;5029087;28;1016;-49
2024/02/05 09:21:22;;;;;;;;;;;;;;;16.44;42.54;100396.69;5019808;28;1906;-46
2024/02/05 09:23:47;;;;;;;;;;;;;;;17.57;40.10;100386.81;5031698;28;1056;-47
2024/02/05 09:26:13;;;;;;;;;;;;;;;16.74;41.70;100370.16;5035766;28;1020;-49
2024/02/05 09:28:38;;;;;;;;;;;;;;;16.20;43.28;100360.81;5022161;28;1490;-49
2024/02/05 09:31:04;;;;;;;;;;;;;;;15.87;43.76;100366.72;5029371;28;2678;-47
2024/02/05 09:33:30;;;;;;;;;;;;;;;15.68;44.48;100352.78;5025548;28;1116;-45
2024/02/05 09:35:56;;;;;;;;;;;;;;;15.47;44.90;100354.69;5029324;28;1145;-48
2024/02/05 09:38:23;;;;;;;;;;;;;;;16.63;42.27;100358.41;5019638;28;1024;-48
2024/02/05 09:40:53;;;;;;;;;;;;;;;17.45;40.49;100357.00;5029009;28;1905;-48
2024/02/05 09:43:20;;;;;;;;;;;;;;;16.40;42.70;100341.53;5024692;28;1126;-45
2024/02/05 09:45:46;;;;;;;;;;;;;;;15.97;43.64;100349.41;5038382;28;838;-46
2024/02/05 09:48:11;;;;;;;;;;;;;;;15.69;44.55;100346.16;5021960;28;1131;-46
2024/02/05 09:50:37;;;;;;;;;;;;;;;15.51;44.58;100349.50;5018063;28;1032;-45
2024/02/05 09:53:03;;;;;;;;;;;;;;;15.42;44.87;100356.63;5018645;28;1064;-48
2024/02/05 09:55:28;;;;;;;;;;;;;;;16.79;41.88;100355.56;5029230;28;1044;-44
2024/02/05 09:57:54;;;;;;;;;;;;;;;17.37;40.66;100346.63;5026185;28;1103;-47
2024/02/05 10:00:19;;;;;;;;;;;;;;;16.29;42.73;100337.19;5027702;28;2575;-45
2024/02/05 10:02:45;;;;;;;;;;;;;;;15.90;44.05;100340.66;5035270;28;1116;-46
2024/02/05 10:05:14;;;;;;;;;;;;;;;15.69;44.36;100335.19;5027732;28;1096;-47
2024/02/05 10:07:40;;;;;;;;;;;;;;;15.54;44.67;100330.59;5035802;28;1242;-48
2024/02/05 10:10:06;;;;;;;;;;;;;;;15.52;44.77;100319.06;5037352;28;872;-48
2024/02/05 10:12:31;;;;;;;;;;;;;;;17.07;41.38;100319.13;5038671;28;1187;-45
2024/02/05 10:14:57;;;;;;;;;;;;;;;17.06;41.25;100322.97;5038861;28;1094;-46
2024/02/05 10:17:24;;;;;;;;;;;;;;;16.19;43.08;100329.03;5024260;28;1059;-46
2024/02/05 10:19:50;;;;;;;;;;;;;;;15.82;44.26;100320.13;5038534;28;1983;-49
2024/02/05 10:22:15;;;;;;;;;;;;;;;15.69;44.29;100313.28;5021003;28;1044;-48
2024/02/05 10:24:41;;;;;;;;;;;;;;;15.45;45.06;100313.06;5018594;28;1067;-46
2024/02/05 10:27:06;;;;;;;;;;;;;;;17.00;41.76;100310.41;5022903;28;1175;-49
2024/02/05 10:29:32;;;;;;;;;;;;;;;17.01;41.41;100303.81;5027683;28;2540;-45
2024/02/05 10:31:58;;;;;;;;;;;;;;;16.20;43.49;100305.97;5017488;28;1055;-48
2024/02/05 10:34:24;;;;;;;;;;;;;;;15.87;44.19;100311.06;5035613;28;962;-49
2024/02/05 10:36:50;;;;;;;;;;;;;;;15.64;44.74;100309.72;5037435;28;1071;-47
2024/02/05 10:39:23;;;;;;;;;;;;;;;15.46;45.01;100313.88;5026610;28;1899;-45
2024/02/05 10:41:48;;;;;;;;;;;;;;;16.63;42.45;100319.16;5018405;28;1040;-48
2024/02/05 10:44:14;;;;;;;;;;;;;;;17.52;40.51;100320.91;5030111;28;1195;-49
2024/02/05 10:46:40;;;;;;;;;;;;;;;16.43;42.71;100318.19;5032021;28;1167;-47
2024/02/05 10:49:06;;;;;;;;;;;;;;;16.00;43.91;100324.16;5030736;28;1148;-46
2024/02/05 10:51:32;;;;;;;;;;;;;;;15.82;44.48;100327.53;5025112;28;1080;-48
2024/02/05 10:53:57;;;;;;;;;;;;;;;15.64;44.60;100320.69;5023866;28;1103;-45
2024/02/05 10:56:23;;;;;;;;;;;;;;;15.37;45.28;100316.38;5050594;28;1152;-50
2024/02/05 10:58:54;;;;;;;;;;;;;;;16.83;42.07;100324.53;5018208;28;837;-46
2024/02/05 11:01:20;;;;;;;;;;;;;;;17.40;40.59;100313.88;5022289;28;2483;-49
2024/02/05 11:03:45;;;;;;;;;;;;;;;16.38;43.23;100313.56;5037243;28;1058;-46
2024/02/05 11:06:11;;;;;;;;;;;;;;;16.02;43.89;100301.94;5033105;28;1082;-45
2024/02/05 11:08:38;;;;;;;;;;;;;;;15.76;44.72;100296.53;5027926;28;1160;-49
2024/02/05 11:11:09;;;;;;;;;;;;;;;15.59;44.73;100296.06;5035774;28;1079;-47
2024/02/05 11:13:37;;;;;;;;;;;;;;;16.10;43.93;100284.09;5037418;28;1099;-48
2024/02/05 11:16:03;;;;;;;;;;;;;;;17.46;41.09;100276.19;5037173;28;1035;-47
2024/02/05 11:18:36;;;;;;;;;;;;;;;16.62;42.51;100277.19;5036309;28;1055;-46
2024/02/05 11:21:01;;;;;;;;;;;;;;;16.15;43.88;100289.56;5032482;28;1909;-47
2024/02/05 11:23:27;;;;;;;;;;;;;;;15.80;44.67;100281.19;5023487;28;1025;-51
2024/02/05 11:25:52;;;;;;;;;;;;;;;15.64;44.92;100285.91;5022261;28;1077;-48
2024/02/05 11:28:18;;;;;;;;;;;;;;;15.43;45.32;100284.31;5024584;28;1103;-48
2024/02/05 11:30:44;;;;;;;;;;;;;;;16.90;42.13;100280.25;5035877;28;2471;-48
2024/02/05 11:33:09;;;;;;;;;;;;;;;17.30;41.00;100271.94;5033419;28;1087;-46
2024/02/05 11:35:35;;;;;;;;;;;;;;;16.40;43.16;100277.59;5036382;28;1031;-52
2024/02/05 11:38:19;;;;;;;;;;;;;;;15.88;44.47;100315.47;5025626;28;1126;-45
2024/02/05 11:40:44;;;;;;;;;;;;;;;15.69;44.78;100265.88;5035576;28;1989;-49
2024/02/05 11:43:10;;;;;;;;;;;;;;;15.55;45.34;100269.19;5034076;28;1887;-52
2024/02/05 11:45:35;;;;;;;;;;;;;;;16.64;43.02;100288.69;5019383;28;2710;-48
2024/02/05 11:48:01;;;;;;;;;;;;;;;17.43;41.13;100261.09;5032223;28;1231;-47
2024/02/05 11:50:27;;;;;;;;;;;;;;;16.40;43.35;100256.47;5028761;28;1016;-48
2024/02/05 11:52:52;;;;;;;;;;;;;;;15.95;44.56;100263.88;5030234;28;1083;-48
2024/02/05 11:55:18;;;;;;;;;;;;;;;15.77;44.86;100259.81;5015762;28;1124;-50
2024/02/05 11:57:43;;;;;;;;;;;;;;;15.59;45.20;100260.44;5031102;28;1171;-47
2024/02/05 12:00:10;;;;;;;;;;;;;;;15.46;45.58;100243.47;5028396;28;1984;-48
2024/02/05 12:02:35;;;;;;;;;;;;;;;16.53;43.42;100259.69;5031115;28;1027;-49
2024/02/05 12:05:01;;;;;;;;;;;;;;;17.62;40.81;100261.13;5028367;28;2444;-48
2024/02/05 12:07:26;;;;;;;;;;;;;;;16.66;42.81;100253.53;5029553;28;2006;-51
2024/02/05 12:09:53;;;;;;;;;;;;;;;16.10;44.26;100253.91;5028875;28;2051;-45
2024/02/05 12:12:19;;;;;;;;;;;;;;;15.87;44.62;100256.22;5016235;28;2129;-48
2024/02/05 12:14:44;;;;;;;;;;;;;;;15.66;45.07;100248.06;5028952;28;2046;-49
2024/02/05 12:17:13;;;;;;;;;;;;;;;15.46;45.45;100240.75;5025632;28;2265;-49
2024/02/05 12:19:39;;;;;;;;;;;;;;;15.72;45.34;100230.50;5021414;28;2355;-48
2024/02/05 12:22:04;;;;;;;;;;;;;;;17.23;41.66;100261.28;5030046;28;1115;-47
2024/02/05 12:24:30;;;;;;;;;;;;;;;16.85;42.41;100244.59;5036305;28;1058;-51
2024/02/05 12:26:56;;;;;;;;;;;;;;;16.14;44.03;100242.09;5021908;28;1124;-48
2024/02/05 12:29:25;;;;;;;;;;;;;;;15.84;44.99;100237.59;5028135;28;1001;-47
2024/02/05 12:31:55;;;;;;;;;;;;;;;15.68;45.10;100243.13;5029603;28;1063;-47
2024/02/05 12:34:20;;;;;;;;;;;;;;;15.50;45.63;100240.97;5016465;28;1466;-49
2024/02/05 12:36:46;;;;;;;;;;;;;;;15.61;45.78;100239.84;5018899;28;1095;-45
2024/02/05 12:39:11;;;;;;;;;;;;;;;17.13;41.97;100242.19;5036063;28;1914;-46
2024/02/05 12:41:37;;;;;;;;;;;;;;;17.02;42.10;100244.19;5022938;28;1106;-45